sensor_id;sensor_type;location;lat;lon;timestamp;P1;durP1;ratioP1;P2;durP2;ratioP2
7501;SDS011;3792;47.740;7.606;2022-07-10T00:00:27;3.77;;;2.00;;
7501;SDS011;3792;47.740;7.606;2022-07-10T00:02:56;3.87;;;2.50;;
7501;SDS011;3792;47.740;7.606;2022-07-10T00:05:23;3.27;;;2.40;;
7501;SDS011;3792;47.740;7.606;2022-07-10T00:07:51;1.90;;;1.80;;
7501;SDS011;3792;47.740;7.606;2022-07-10T00:10:19;2.30;;;2.10;;
7501;SDS011;3792;47.740;7.606;2022-07-10T00:12:48;1.87;;;1.77;;
7501;SDS011;3792;47.740;7.606;2022-07-10T00:15:17;2.10;;;1.90;;
7501;SDS011;3792;47.740;7.606;2022-07-10T00:17:45;2.40;;;2.20;;
7501;SDS011;3792;47.740;7.606;2022-07-10T00:20:12;2.50;;;1.90;;
7501;SDS011;3792;47.740;7.606;2022-07-10T00:22:40;2.03;;;1.90;;
7501;SDS011;3792;47.740;7.606;2022-07-10T00:25:09;1.93;;;1.80;;
7501;SDS011;3792;47.740;7.606;2022-07-10T00:27:37;1.87;;;1.77;;
7501;SDS011;3792;47.740;7.606;2022-07-10T00:30:06;2.50;;;2.07;;
7501;SDS011;3792;47.740;7.606;2022-07-10T00:32:34;2.03;;;1.83;;
7501;SDS011;3792;47.740;7.606;2022-07-10T00:35:02;2.10;;;1.93;;
7501;SDS011;3792;47.740;7.606;2022-07-10T00:37:29;2.00;;;1.90;;
7501;SDS011;3792;47.740;7.606;2022-07-10T00:39:56;2.23;;;2.03;;
7501;SDS011;3792;47.740;7.606;2022-07-10T00:42:25;4.83;;;2.20;;
7501;SDS011;3792;47.740;7.606;2022-07-10T00:44:52;2.10;;;2.00;;
7501;SDS011;3792;47.740;7.606;2022-07-10T00:47:20;2.13;;;2.03;;
7501;SDS011;3792;47.740;7.606;2022-07-10T00:49:48;5.90;;;1.93;;
7501;SDS011;3792;47.740;7.606;2022-07-10T00:52:15;1.87;;;1.77;;
7501;SDS011;3792;47.740;7.606;2022-07-10T00:54:44;2.60;;;2.40;;
7501;SDS011;3792;47.740;7.606;2022-07-10T00:57:12;2.10;;;2.00;;
7501;SDS011;3792;47.740;7.606;2022-07-10T00:59:40;2.17;;;2.07;;
7501;SDS011;3792;47.740;7.606;2022-07-10T01:02:08;3.00;;;2.40;;
7501;SDS011;3792;47.740;7.606;2022-07-10T01:04:37;2.93;;;2.30;;
7501;SDS011;3792;47.740;7.606;2022-07-10T01:07:04;2.80;;;2.50;;
7501;SDS011;3792;47.740;7.606;2022-07-10T01:09:31;2.90;;;2.70;;
7501;SDS011;3792;47.740;7.606;2022-07-10T01:11:59;3.10;;;2.80;;
7501;SDS011;3792;47.740;7.606;2022-07-10T01:14:28;3.67;;;2.80;;
7501;SDS011;3792;47.740;7.606;2022-07-10T01:16:55;3.00;;;2.80;;
7501;SDS011;3792;47.740;7.606;2022-07-10T01:19:22;3.73;;;3.07;;
7501;SDS011;3792;47.740;7.606;2022-07-10T01:21:51;4.73;;;3.33;;
7501;SDS011;3792;47.740;7.606;2022-07-10T01:24:18;4.67;;;3.40;;
7501;SDS011;3792;47.740;7.606;2022-07-10T01:26:45;3.63;;;3.33;;
7501;SDS011;3792;47.740;7.606;2022-07-10T01:29:12;4.70;;;3.20;;
7501;SDS011;3792;47.740;7.606;2022-07-10T01:31:40;3.30;;;2.90;;
7501;SDS011;3792;47.740;7.606;2022-07-10T01:34:08;2.90;;;2.70;;
7501;SDS011;3792;47.740;7.606;2022-07-10T01:36:36;3.43;;;3.13;;
7501;SDS011;3792;47.740;7.606;2022-07-10T01:39:05;4.73;;;3.13;;
7501;SDS011;3792;47.740;7.606;2022-07-10T01:41:33;4.53;;;2.67;;
7501;SDS011;3792;47.740;7.606;2022-07-10T01:44:00;3.30;;;3.00;;
7501;SDS011;3792;47.740;7.606;2022-07-10T01:46:27;3.13;;;2.83;;
7501;SDS011;3792;47.740;7.606;2022-07-10T01:48:55;3.30;;;2.80;;
7501;SDS011;3792;47.740;7.606;2022-07-10T01:51:22;3.23;;;3.03;;
7501;SDS011;3792;47.740;7.606;2022-07-10T01:53:49;3.27;;;2.70;;
7501;SDS011;3792;47.740;7.606;2022-07-10T01:56:18;4.87;;;2.80;;
7501;SDS011;3792;47.740;7.606;2022-07-10T01:58:45;3.07;;;2.87;;
7501;SDS011;3792;47.740;7.606;2022-07-10T02:01:12;2.60;;;2.40;;
7501;SDS011;3792;47.740;7.606;2022-07-10T02:03:39;3.90;;;3.20;;
7501;SDS011;3792;47.740;7.606;2022-07-10T02:06:23;4.17;;;2.77;;
7501;SDS011;3792;47.740;7.606;2022-07-10T02:08:50;4.10;;;2.93;;
7501;SDS011;3792;47.740;7.606;2022-07-10T02:11:19;3.27;;;2.83;;
7501;SDS011;3792;47.740;7.606;2022-07-10T02:13:46;4.33;;;2.87;;
7501;SDS011;3792;47.740;7.606;2022-07-10T02:16:13;2.70;;;2.60;;
7501;SDS011;3792;47.740;7.606;2022-07-10T02:18:40;3.23;;;2.97;;
7501;SDS011;3792;47.740;7.606;2022-07-10T02:21:07;3.17;;;2.93;;
7501;SDS011;3792;47.740;7.606;2022-07-10T02:23:34;3.03;;;2.80;;
7501;SDS011;3792;47.740;7.606;2022-07-10T02:26:04;3.17;;;2.83;;
7501;SDS011;3792;47.740;7.606;2022-07-10T02:28:32;3.10;;;2.90;;
7501;SDS011;3792;47.740;7.606;2022-07-10T02:30:59;3.37;;;3.00;;
7501;SDS011;3792;47.740;7.606;2022-07-10T02:33:26;2.80;;;2.60;;
7501;SDS011;3792;47.740;7.606;2022-07-10T02:35:53;5.47;;;2.90;;
7501;SDS011;3792;47.740;7.606;2022-07-10T02:38:20;3.03;;;2.77;;
7501;SDS011;3792;47.740;7.606;2022-07-10T02:40:47;5.70;;;2.77;;
7501;SDS011;3792;47.740;7.606;2022-07-10T02:43:14;3.20;;;2.60;;
7501;SDS011;3792;47.740;7.606;2022-07-10T02:45:43;2.73;;;2.53;;
7501;SDS011;3792;47.740;7.606;2022-07-10T02:48:10;3.87;;;3.27;;
7501;SDS011;3792;47.740;7.606;2022-07-10T02:50:37;3.17;;;2.53;;
7501;SDS011;3792;47.740;7.606;2022-07-10T02:53:04;2.97;;;2.77;;
7501;SDS011;3792;47.740;7.606;2022-07-10T02:55:31;2.87;;;2.67;;
7501;SDS011;3792;47.740;7.606;2022-07-10T02:57:59;2.87;;;2.67;;
7501;SDS011;3792;47.740;7.606;2022-07-10T03:00:26;3.13;;;2.83;;
7501;SDS011;3792;47.740;7.606;2022-07-10T03:02:55;3.20;;;3.00;;
7501;SDS011;3792;47.740;7.606;2022-07-10T03:05:22;3.23;;;2.90;;
7501;SDS011;3792;47.740;7.606;2022-07-10T03:07:49;3.07;;;2.80;;
7501;SDS011;3792;47.740;7.606;2022-07-10T03:10:16;3.50;;;3.00;;
7501;SDS011;3792;47.740;7.606;2022-07-10T03:12:44;3.10;;;2.90;;
7501;SDS011;3792;47.740;7.606;2022-07-10T03:15:13;3.63;;;3.00;;
7501;SDS011;3792;47.740;7.606;2022-07-10T03:17:40;3.80;;;3.20;;
7501;SDS011;3792;47.740;7.606;2022-07-10T03:20:09;4.40;;;3.00;;
7501;SDS011;3792;47.740;7.606;2022-07-10T03:22:36;3.67;;;3.37;;
7501;SDS011;3792;47.740;7.606;2022-07-10T03:25:04;3.93;;;3.27;;
7501;SDS011;3792;47.740;7.606;2022-07-10T03:27:31;3.20;;;2.97;;
7501;SDS011;3792;47.740;7.606;2022-07-10T03:29:59;3.80;;;3.17;;
7501;SDS011;3792;47.740;7.606;2022-07-10T03:32:26;4.27;;;3.10;;
7501;SDS011;3792;47.740;7.606;2022-07-10T03:34:53;4.27;;;3.33;;
7501;SDS011;3792;47.740;7.606;2022-07-10T03:37:21;3.00;;;2.50;;
7501;SDS011;3792;47.740;7.606;2022-07-10T03:39:49;3.23;;;2.93;;
7501;SDS011;3792;47.740;7.606;2022-07-10T03:42:16;4.70;;;3.60;;
7501;SDS011;3792;47.740;7.606;2022-07-10T03:44:43;3.40;;;3.10;;
7501;SDS011;3792;47.740;7.606;2022-07-10T03:47:10;3.60;;;3.17;;
7501;SDS011;3792;47.740;7.606;2022-07-10T03:49:38;4.10;;;3.70;;
7501;SDS011;3792;47.740;7.606;2022-07-10T03:52:06;3.50;;;3.20;;
7501;SDS011;3792;47.740;7.606;2022-07-10T03:54:35;3.63;;;3.27;;
7501;SDS011;3792;47.740;7.606;2022-07-10T03:57:03;3.47;;;3.10;;
7501;SDS011;3792;47.740;7.606;2022-07-10T03:59:48;4.53;;;3.70;;
7501;SDS011;3792;47.740;7.606;2022-07-10T04:02:15;4.23;;;3.50;;
7501;SDS011;3792;47.740;7.606;2022-07-10T04:04:42;7.70;;;5.13;;
7501;SDS011;3792;47.740;7.606;2022-07-10T04:07:09;4.20;;;3.90;;
7501;SDS011;3792;47.740;7.606;2022-07-10T04:09:39;5.87;;;5.37;;
7501;SDS011;3792;47.740;7.606;2022-07-10T04:15:06;6.20;;;5.63;;
7501;SDS011;3792;47.740;7.606;2022-07-10T04:17:34;6.87;;;6.20;;
7501;SDS011;3792;47.740;7.606;2022-07-10T04:20:01;5.67;;;5.17;;
7501;SDS011;3792;47.740;7.606;2022-07-10T04:22:28;6.73;;;6.07;;
7501;SDS011;3792;47.740;7.606;2022-07-10T04:24:57;5.87;;;5.37;;
7501;SDS011;3792;47.740;7.606;2022-07-10T04:27:35;4.90;;;4.50;;
7501;SDS011;3792;47.740;7.606;2022-07-10T04:30:08;5.73;;;5.23;;
7501;SDS011;3792;47.740;7.606;2022-07-10T04:32:35;5.33;;;4.10;;
7501;SDS011;3792;47.740;7.606;2022-07-10T04:35:03;5.63;;;5.13;;
7501;SDS011;3792;47.740;7.606;2022-07-10T04:37:30;5.43;;;4.93;;
7501;SDS011;3792;47.740;7.606;2022-07-10T04:40:01;5.17;;;4.67;;
7501;SDS011;3792;47.740;7.606;2022-07-10T04:42:47;5.10;;;4.70;;
7501;SDS011;3792;47.740;7.606;2022-07-10T04:45:17;6.90;;;5.77;;
7501;SDS011;3792;47.740;7.606;2022-07-10T04:47:44;6.33;;;5.83;;
7501;SDS011;3792;47.740;7.606;2022-07-10T04:50:11;6.33;;;5.30;;
7501;SDS011;3792;47.740;7.606;2022-07-10T04:52:38;6.13;;;5.47;;
7501;SDS011;3792;47.740;7.606;2022-07-10T04:55:07;7.23;;;6.10;;
7501;SDS011;3792;47.740;7.606;2022-07-10T04:57:35;5.00;;;4.60;;
7501;SDS011;3792;47.740;7.606;2022-07-10T05:00:04;6.03;;;5.50;;
7501;SDS011;3792;47.740;7.606;2022-07-10T05:02:32;5.03;;;4.63;;
7501;SDS011;3792;47.740;7.606;2022-07-10T05:04:59;6.87;;;5.30;;
7501;SDS011;3792;47.740;7.606;2022-07-10T05:07:26;5.37;;;4.87;;
7501;SDS011;3792;47.740;7.606;2022-07-10T05:09:54;6.67;;;5.57;;
7501;SDS011;3792;47.740;7.606;2022-07-10T05:12:22;5.30;;;4.80;;
7501;SDS011;3792;47.740;7.606;2022-07-10T05:14:49;6.63;;;5.30;;
7501;SDS011;3792;47.740;7.606;2022-07-10T05:17:17;5.63;;;5.03;;
7501;SDS011;3792;47.740;7.606;2022-07-10T05:19:44;5.40;;;5.00;;
7501;SDS011;3792;47.740;7.606;2022-07-10T05:22:11;5.60;;;5.10;;
7501;SDS011;3792;47.740;7.606;2022-07-10T05:24:39;5.37;;;4.87;;
7501;SDS011;3792;47.740;7.606;2022-07-10T05:27:07;5.00;;;4.60;;
7501;SDS011;3792;47.740;7.606;2022-07-10T05:29:35;6.40;;;5.27;;
7501;SDS011;3792;47.740;7.606;2022-07-10T05:32:03;5.17;;;4.77;;
7501;SDS011;3792;47.740;7.606;2022-07-10T05:34:30;5.07;;;4.67;;
7501;SDS011;3792;47.740;7.606;2022-07-10T05:36:57;6.30;;;5.27;;
7501;SDS011;3792;47.740;7.606;2022-07-10T05:39:24;5.40;;;4.87;;
7501;SDS011;3792;47.740;7.606;2022-07-10T05:41:52;4.57;;;4.27;;
7501;SDS011;3792;47.740;7.606;2022-07-10T05:44:19;4.90;;;4.43;;
7501;SDS011;3792;47.740;7.606;2022-07-10T05:46:47;5.50;;;4.40;;
7501;SDS011;3792;47.740;7.606;2022-07-10T05:49:15;4.70;;;4.40;;
7501;SDS011;3792;47.740;7.606;2022-07-10T05:51:42;5.07;;;4.50;;
7501;SDS011;3792;47.740;7.606;2022-07-10T05:54:09;5.53;;;4.23;;
7501;SDS011;3792;47.740;7.606;2022-07-10T05:56:36;5.17;;;4.37;;
7501;SDS011;3792;47.740;7.606;2022-07-10T05:59:03;6.20;;;3.63;;
7501;SDS011;3792;47.740;7.606;2022-07-10T06:01:30;6.07;;;3.80;;
7501;SDS011;3792;47.740;7.606;2022-07-10T06:03:59;4.20;;;3.87;;
7501;SDS011;3792;47.740;7.606;2022-07-10T06:06:26;4.80;;;3.97;;
7501;SDS011;3792;47.740;7.606;2022-07-10T06:08:53;4.60;;;3.80;;
7501;SDS011;3792;47.740;7.606;2022-07-10T06:11:20;6.00;;;3.53;;
7501;SDS011;3792;47.740;7.606;2022-07-10T06:13:47;3.87;;;3.57;;
7501;SDS011;3792;47.740;7.606;2022-07-10T06:16:14;5.30;;;3.60;;
7501;SDS011;3792;47.740;7.606;2022-07-10T06:18:41;4.10;;;3.70;;
7501;SDS011;3792;47.740;7.606;2022-07-10T06:21:10;3.93;;;3.63;;
7501;SDS011;3792;47.740;7.606;2022-07-10T06:23:37;3.83;;;3.57;;
7501;SDS011;3792;47.740;7.606;2022-07-10T06:26:04;5.20;;;3.53;;
7501;SDS011;3792;47.740;7.606;2022-07-10T06:28:33;3.70;;;3.40;;
7501;SDS011;3792;47.740;7.606;2022-07-10T06:31:00;4.60;;;3.63;;
7501;SDS011;3792;47.740;7.606;2022-07-10T06:33:27;7.83;;;3.73;;
7501;SDS011;3792;47.740;7.606;2022-07-10T06:35:54;3.80;;;3.50;;
7501;SDS011;3792;47.740;7.606;2022-07-10T06:38:23;5.73;;;3.40;;
7501;SDS011;3792;47.740;7.606;2022-07-10T06:40:50;4.13;;;3.60;;
7501;SDS011;3792;47.740;7.606;2022-07-10T06:43:19;5.70;;;3.53;;
7501;SDS011;3792;47.740;7.606;2022-07-10T06:45:46;3.77;;;3.20;;
7501;SDS011;3792;47.740;7.606;2022-07-10T06:48:13;3.97;;;3.20;;
7501;SDS011;3792;47.740;7.606;2022-07-10T06:50:40;4.87;;;2.87;;
7501;SDS011;3792;47.740;7.606;2022-07-10T06:53:07;4.87;;;3.73;;
7501;SDS011;3792;47.740;7.606;2022-07-10T06:55:36;4.10;;;3.10;;
7501;SDS011;3792;47.740;7.606;2022-07-10T06:58:04;5.00;;;3.60;;
7501;SDS011;3792;47.740;7.606;2022-07-10T07:00:31;4.20;;;3.47;;
7501;SDS011;3792;47.740;7.606;2022-07-10T07:02:58;5.43;;;3.53;;
7501;SDS011;3792;47.740;7.606;2022-07-10T07:05:25;3.87;;;3.20;;
7501;SDS011;3792;47.740;7.606;2022-07-10T07:07:52;5.13;;;3.10;;
7501;SDS011;3792;47.740;7.606;2022-07-10T07:10:19;4.20;;;3.40;;
7501;SDS011;3792;47.740;7.606;2022-07-10T07:12:48;4.07;;;3.40;;
7501;SDS011;3792;47.740;7.606;2022-07-10T07:15:15;3.43;;;3.10;;
7501;SDS011;3792;47.740;7.606;2022-07-10T07:17:42;4.97;;;3.07;;
7501;SDS011;3792;47.740;7.606;2022-07-10T07:20:22;4.37;;;3.23;;
7501;SDS011;3792;47.740;7.606;2022-07-10T07:23:07;5.17;;;3.57;;
7501;SDS011;3792;47.740;7.606;2022-07-10T07:25:38;4.87;;;3.60;;
7501;SDS011;3792;47.740;7.606;2022-07-10T07:28:08;4.40;;;3.10;;
7501;SDS011;3792;47.740;7.606;2022-07-10T07:30:36;6.50;;;3.27;;
7501;SDS011;3792;47.740;7.606;2022-07-10T07:33:03;4.13;;;2.93;;
7501;SDS011;3792;47.740;7.606;2022-07-10T07:35:30;4.60;;;3.00;;
7501;SDS011;3792;47.740;7.606;2022-07-10T07:37:57;4.20;;;2.90;;
7501;SDS011;3792;47.740;7.606;2022-07-10T07:40:24;3.30;;;2.93;;
7501;SDS011;3792;47.740;7.606;2022-07-10T07:42:52;3.67;;;2.90;;
7501;SDS011;3792;47.740;7.606;2022-07-10T07:45:21;7.10;;;3.60;;
7501;SDS011;3792;47.740;7.606;2022-07-10T07:47:49;3.33;;;2.93;;
7501;SDS011;3792;47.740;7.606;2022-07-10T07:50:19;6.10;;;3.83;;
7501;SDS011;3792;47.740;7.606;2022-07-10T07:52:47;7.03;;;3.73;;
7501;SDS011;3792;47.740;7.606;2022-07-10T07:55:17;4.70;;;3.63;;
7501;SDS011;3792;47.740;7.606;2022-07-10T07:57:44;4.50;;;3.40;;
7501;SDS011;3792;47.740;7.606;2022-07-10T08:00:12;4.17;;;2.93;;
7501;SDS011;3792;47.740;7.606;2022-07-10T08:02:43;3.67;;;3.37;;
7501;SDS011;3792;47.740;7.606;2022-07-10T08:05:10;4.30;;;2.90;;
7501;SDS011;3792;47.740;7.606;2022-07-10T08:07:38;3.27;;;2.97;;
7501;SDS011;3792;47.740;7.606;2022-07-10T08:10:07;8.93;;;3.47;;
7501;SDS011;3792;47.740;7.606;2022-07-10T08:12:35;5.10;;;3.10;;
7501;SDS011;3792;47.740;7.606;2022-07-10T08:15:04;4.63;;;2.93;;
7501;SDS011;3792;47.740;7.606;2022-07-10T08:17:32;8.00;;;3.40;;
7501;SDS011;3792;47.740;7.606;2022-07-10T08:20:01;5.80;;;3.37;;
7501;SDS011;3792;47.740;7.606;2022-07-10T08:22:28;5.63;;;3.20;;
7501;SDS011;3792;47.740;7.606;2022-07-10T08:24:55;5.63;;;3.00;;
7501;SDS011;3792;47.740;7.606;2022-07-10T08:27:22;6.43;;;3.30;;
7501;SDS011;3792;47.740;7.606;2022-07-10T08:29:50;3.50;;;3.20;;
7501;SDS011;3792;47.740;7.606;2022-07-10T08:32:17;6.27;;;3.87;;
7501;SDS011;3792;47.740;7.606;2022-07-10T08:34:44;4.93;;;3.07;;
7501;SDS011;3792;47.740;7.606;2022-07-10T08:37:12;3.43;;;2.90;;
7501;SDS011;3792;47.740;7.606;2022-07-10T08:39:39;3.93;;;2.70;;
7501;SDS011;3792;47.740;7.606;2022-07-10T08:42:07;3.40;;;2.70;;
7501;SDS011;3792;47.740;7.606;2022-07-10T08:44:36;5.17;;;2.97;;
7501;SDS011;3792;47.740;7.606;2022-07-10T08:47:04;4.67;;;3.23;;
7501;SDS011;3792;47.740;7.606;2022-07-10T08:49:31;7.57;;;3.33;;
7501;SDS011;3792;47.740;7.606;2022-07-10T08:52:02;4.33;;;2.80;;
7501;SDS011;3792;47.740;7.606;2022-07-10T08:54:32;5.17;;;3.13;;
7501;SDS011;3792;47.740;7.606;2022-07-10T08:57:00;3.57;;;3.27;;
7501;SDS011;3792;47.740;7.606;2022-07-10T08:59:28;3.13;;;2.80;;
7501;SDS011;3792;47.740;7.606;2022-07-10T09:01:56;2.73;;;2.53;;
7501;SDS011;3792;47.740;7.606;2022-07-10T09:04:24;4.73;;;3.40;;
7501;SDS011;3792;47.740;7.606;2022-07-10T09:06:52;4.53;;;3.00;;
7501;SDS011;3792;47.740;7.606;2022-07-10T09:09:20;5.17;;;3.27;;
7501;SDS011;3792;47.740;7.606;2022-07-10T09:11:54;5.33;;;2.90;;
7501;SDS011;3792;47.740;7.606;2022-07-10T09:14:23;3.17;;;2.77;;
7501;SDS011;3792;47.740;7.606;2022-07-10T09:16:53;6.23;;;2.97;;
7501;SDS011;3792;47.740;7.606;2022-07-10T09:19:21;4.17;;;2.77;;
7501;SDS011;3792;47.740;7.606;2022-07-10T09:21:49;5.73;;;3.13;;
7501;SDS011;3792;47.740;7.606;2022-07-10T09:24:18;4.00;;;2.70;;
7501;SDS011;3792;47.740;7.606;2022-07-10T09:26:48;8.93;;;2.50;;
7501;SDS011;3792;47.740;7.606;2022-07-10T09:29:28;3.37;;;2.60;;
7501;SDS011;3792;47.740;7.606;2022-07-10T09:31:58;5.50;;;2.60;;
7501;SDS011;3792;47.740;7.606;2022-07-10T09:34:36;5.67;;;2.60;;
7501;SDS011;3792;47.740;7.606;2022-07-10T09:39:54;3.23;;;2.60;;
7501;SDS011;3792;47.740;7.606;2022-07-10T09:42:27;2.40;;;2.20;;
7501;SDS011;3792;47.740;7.606;2022-07-10T09:45:16;4.10;;;2.53;;
7501;SDS011;3792;47.740;7.606;2022-07-10T09:47:45;4.37;;;2.50;;
7501;SDS011;3792;47.740;7.606;2022-07-10T09:50:20;4.37;;;2.43;;
7501;SDS011;3792;47.740;7.606;2022-07-10T09:52:49;3.47;;;2.23;;
7501;SDS011;3792;47.740;7.606;2022-07-10T09:55:20;5.40;;;2.47;;
7501;SDS011;3792;47.740;7.606;2022-07-10T09:57:52;3.83;;;2.37;;
7501;SDS011;3792;47.740;7.606;2022-07-10T10:00:22;2.67;;;2.37;;
7501;SDS011;3792;47.740;7.606;2022-07-10T10:02:55;4.00;;;2.40;;
7501;SDS011;3792;47.740;7.606;2022-07-10T10:05:26;4.37;;;2.60;;
7501;SDS011;3792;47.740;7.606;2022-07-10T10:08:01;3.00;;;2.40;;
7501;SDS011;3792;47.740;7.606;2022-07-10T10:10:35;5.77;;;2.80;;
7501;SDS011;3792;47.740;7.606;2022-07-10T10:13:06;2.30;;;2.10;;
7501;SDS011;3792;47.740;7.606;2022-07-10T10:15:36;4.43;;;2.33;;
7501;SDS011;3792;47.740;7.606;2022-07-10T10:18:04;5.03;;;2.40;;
7501;SDS011;3792;47.740;7.606;2022-07-10T10:20:33;4.03;;;2.33;;
7501;SDS011;3792;47.740;7.606;2022-07-10T10:23:03;5.73;;;2.80;;
7501;SDS011;3792;47.740;7.606;2022-07-10T10:25:32;5.77;;;2.30;;
7501;SDS011;3792;47.740;7.606;2022-07-10T10:28:01;3.10;;;2.33;;
7501;SDS011;3792;47.740;7.606;2022-07-10T10:30:32;3.57;;;2.57;;
7501;SDS011;3792;47.740;7.606;2022-07-10T10:33:02;6.00;;;2.40;;
7501;SDS011;3792;47.740;7.606;2022-07-10T10:35:41;4.07;;;2.10;;
7501;SDS011;3792;47.740;7.606;2022-07-10T10:38:10;2.63;;;2.10;;
7501;SDS011;3792;47.740;7.606;2022-07-10T10:40:37;5.57;;;2.50;;
7501;SDS011;3792;47.740;7.606;2022-07-10T10:43:17;4.03;;;2.73;;
7501;SDS011;3792;47.740;7.606;2022-07-10T10:45:46;6.40;;;2.53;;
7501;SDS011;3792;47.740;7.606;2022-07-10T10:48:14;3.33;;;2.40;;
7501;SDS011;3792;47.740;7.606;2022-07-10T10:50:45;3.97;;;2.10;;
7501;SDS011;3792;47.740;7.606;2022-07-10T10:53:13;4.30;;;2.47;;
7501;SDS011;3792;47.740;7.606;2022-07-10T10:58:39;2.50;;;2.30;;
7501;SDS011;3792;47.740;7.606;2022-07-10T11:01:23;3.17;;;2.57;;
7501;SDS011;3792;47.740;7.606;2022-07-10T11:06:42;2.67;;;2.43;;
7501;SDS011;3792;47.740;7.606;2022-07-10T11:09:24;5.00;;;3.20;;
7501;SDS011;3792;47.740;7.606;2022-07-10T11:12:02;6.87;;;3.20;;
7501;SDS011;3792;47.740;7.606;2022-07-10T11:14:31;3.67;;;2.83;;
7501;SDS011;3792;47.740;7.606;2022-07-10T11:17:01;5.97;;;3.30;;
7501;SDS011;3792;47.740;7.606;2022-07-10T11:19:29;5.37;;;3.40;;
7501;SDS011;3792;47.740;7.606;2022-07-10T11:22:07;3.83;;;3.20;;
7501;SDS011;3792;47.740;7.606;2022-07-10T11:24:49;3.10;;;2.63;;
7501;SDS011;3792;47.740;7.606;2022-07-10T11:27:29;5.17;;;2.43;;
7501;SDS011;3792;47.740;7.606;2022-07-10T11:30:06;4.70;;;2.57;;
7501;SDS011;3792;47.740;7.606;2022-07-10T11:32:36;2.93;;;2.37;;
7501;SDS011;3792;47.740;7.606;2022-07-10T11:35:09;5.10;;;2.80;;
7501;SDS011;3792;47.740;7.606;2022-07-10T11:37:48;4.87;;;2.60;;
7501;SDS011;3792;47.740;7.606;2022-07-10T11:40:16;3.37;;;2.50;;
7501;SDS011;3792;47.740;7.606;2022-07-10T11:42:48;3.30;;;2.20;;
7501;SDS011;3792;47.740;7.606;2022-07-10T11:45:25;3.90;;;2.40;;
7501;SDS011;3792;47.740;7.606;2022-07-10T11:47:55;4.33;;;2.00;;
7501;SDS011;3792;47.740;7.606;2022-07-10T11:50:22;4.00;;;2.37;;
7501;SDS011;3792;47.740;7.606;2022-07-10T11:55:48;3.13;;;2.30;;
7501;SDS011;3792;47.740;7.606;2022-07-10T11:58:18;3.43;;;2.30;;
7501;SDS011;3792;47.740;7.606;2022-07-10T12:00:58;3.97;;;2.30;;
7501;SDS011;3792;47.740;7.606;2022-07-10T12:03:29;3.97;;;2.00;;
7501;SDS011;3792;47.740;7.606;2022-07-10T12:06:00;3.70;;;1.90;;
7501;SDS011;3792;47.740;7.606;2022-07-10T12:08:28;2.27;;;1.77;;
7501;SDS011;3792;47.740;7.606;2022-07-10T12:10:56;2.33;;;2.10;;
7501;SDS011;3792;47.740;7.606;2022-07-10T12:13:23;3.33;;;1.80;;
7501;SDS011;3792;47.740;7.606;2022-07-10T12:15:51;2.87;;;1.63;;
7501;SDS011;3792;47.740;7.606;2022-07-10T12:18:19;2.73;;;1.80;;
7501;SDS011;3792;47.740;7.606;2022-07-10T12:20:49;1.83;;;1.70;;
7501;SDS011;3792;47.740;7.606;2022-07-10T12:23:18;1.80;;;1.63;;
7501;SDS011;3792;47.740;7.606;2022-07-10T12:25:47;3.23;;;1.80;;
7501;SDS011;3792;47.740;7.606;2022-07-10T12:28:15;1.53;;;1.43;;
7501;SDS011;3792;47.740;7.606;2022-07-10T12:30:43;1.63;;;1.53;;
7501;SDS011;3792;47.740;7.606;2022-07-10T12:33:13;1.70;;;1.60;;
7501;SDS011;3792;47.740;7.606;2022-07-10T12:35:46;4.00;;;1.90;;
7501;SDS011;3792;47.740;7.606;2022-07-10T12:38:19;3.53;;;1.60;;
7501;SDS011;3792;47.740;7.606;2022-07-10T12:40:48;3.07;;;1.90;;
7501;SDS011;3792;47.740;7.606;2022-07-10T12:43:25;1.73;;;1.63;;
7501;SDS011;3792;47.740;7.606;2022-07-10T12:46:12;1.50;;;1.40;;
7501;SDS011;3792;47.740;7.606;2022-07-10T12:48:41;2.77;;;1.53;;
7501;SDS011;3792;47.740;7.606;2022-07-10T12:51:21;1.57;;;1.10;;
7501;SDS011;3792;47.740;7.606;2022-07-10T12:53:49;3.07;;;1.40;;
7501;SDS011;3792;47.740;7.606;2022-07-10T12:56:26;1.57;;;1.47;;
7501;SDS011;3792;47.740;7.606;2022-07-10T12:58:58;2.60;;;1.53;;
7501;SDS011;3792;47.740;7.606;2022-07-10T13:01:27;1.80;;;1.17;;
7501;SDS011;3792;47.740;7.606;2022-07-10T13:03:59;1.60;;;1.00;;
7501;SDS011;3792;47.740;7.606;2022-07-10T13:06:29;3.30;;;1.07;;
7501;SDS011;3792;47.740;7.606;2022-07-10T13:08:57;1.10;;;1.07;;
7501;SDS011;3792;47.740;7.606;2022-07-10T13:11:25;1.50;;;1.30;;
7501;SDS011;3792;47.740;7.606;2022-07-10T13:13:52;1.47;;;1.13;;
7501;SDS011;3792;47.740;7.606;2022-07-10T13:16:21;1.10;;;1.00;;
7501;SDS011;3792;47.740;7.606;2022-07-10T13:18:49;2.80;;;1.17;;
7501;SDS011;3792;47.740;7.606;2022-07-10T13:21:16;1.77;;;1.10;;
7501;SDS011;3792;47.740;7.606;2022-07-10T13:23:44;1.33;;;1.20;;
7501;SDS011;3792;47.740;7.606;2022-07-10T13:26:13;1.70;;;1.10;;
7501;SDS011;3792;47.740;7.606;2022-07-10T13:28:40;1.67;;;1.17;;
7501;SDS011;3792;47.740;7.606;2022-07-10T13:31:08;1.43;;;1.00;;
7501;SDS011;3792;47.740;7.606;2022-07-10T13:33:35;1.47;;;1.33;;
7501;SDS011;3792;47.740;7.606;2022-07-10T13:36:03;2.50;;;1.33;;
7501;SDS011;3792;47.740;7.606;2022-07-10T13:38:30;4.83;;;1.43;;
7501;SDS011;3792;47.740;7.606;2022-07-10T13:40:59;1.40;;;1.30;;
7501;SDS011;3792;47.740;7.606;2022-07-10T13:43:26;2.37;;;1.20;;
7501;SDS011;3792;47.740;7.606;2022-07-10T13:45:56;1.40;;;1.30;;
7501;SDS011;3792;47.740;7.606;2022-07-10T13:48:24;1.03;;;1.03;;
7501;SDS011;3792;47.740;7.606;2022-07-10T13:50:51;2.33;;;1.20;;
7501;SDS011;3792;47.740;7.606;2022-07-10T13:53:19;1.90;;;1.47;;
7501;SDS011;3792;47.740;7.606;2022-07-10T13:55:46;1.40;;;1.30;;
7501;SDS011;3792;47.740;7.606;2022-07-10T13:58:15;1.50;;;1.30;;
7501;SDS011;3792;47.740;7.606;2022-07-10T14:00:43;1.53;;;1.43;;
7501;SDS011;3792;47.740;7.606;2022-07-10T14:03:10;1.67;;;1.57;;
7501;SDS011;3792;47.740;7.606;2022-07-10T14:05:37;1.33;;;1.23;;
7501;SDS011;3792;47.740;7.606;2022-07-10T14:08:04;2.20;;;1.57;;
7501;SDS011;3792;47.740;7.606;2022-07-10T14:10:31;2.77;;;1.60;;
7501;SDS011;3792;47.740;7.606;2022-07-10T14:12:59;2.00;;;1.80;;
7501;SDS011;3792;47.740;7.606;2022-07-10T14:15:28;3.07;;;1.60;;
7501;SDS011;3792;47.740;7.606;2022-07-10T14:17:56;2.40;;;1.70;;
7501;SDS011;3792;47.740;7.606;2022-07-10T14:20:23;1.53;;;1.43;;
7501;SDS011;3792;47.740;7.606;2022-07-10T14:22:50;5.23;;;1.50;;
7501;SDS011;3792;47.740;7.606;2022-07-10T14:25:17;4.40;;;1.80;;
7501;SDS011;3792;47.740;7.606;2022-07-10T14:27:48;3.00;;;1.80;;
7501;SDS011;3792;47.740;7.606;2022-07-10T14:30:15;3.47;;;1.80;;
7501;SDS011;3792;47.740;7.606;2022-07-10T14:32:45;5.07;;;1.67;;
7501;SDS011;3792;47.740;7.606;2022-07-10T14:35:12;2.13;;;1.60;;
7501;SDS011;3792;47.740;7.606;2022-07-10T14:37:39;3.60;;;1.50;;
7501;SDS011;3792;47.740;7.606;2022-07-10T14:40:06;2.67;;;1.47;;
7501;SDS011;3792;47.740;7.606;2022-07-10T14:42:34;3.07;;;1.60;;
7501;SDS011;3792;47.740;7.606;2022-07-10T14:45:01;3.37;;;1.73;;
7501;SDS011;3792;47.740;7.606;2022-07-10T14:47:28;2.00;;;1.23;;
7501;SDS011;3792;47.740;7.606;2022-07-10T14:49:56;2.53;;;1.30;;
7501;SDS011;3792;47.740;7.606;2022-07-10T14:52:23;2.97;;;1.40;;
7501;SDS011;3792;47.740;7.606;2022-07-10T14:54:52;2.93;;;1.50;;
7501;SDS011;3792;47.740;7.606;2022-07-10T14:57:19;2.90;;;1.50;;
7501;SDS011;3792;47.740;7.606;2022-07-10T14:59:46;2.50;;;1.17;;
7501;SDS011;3792;47.740;7.606;2022-07-10T15:02:13;2.07;;;1.50;;
7501;SDS011;3792;47.740;7.606;2022-07-10T15:04:41;1.73;;;1.40;;
7501;SDS011;3792;47.740;7.606;2022-07-10T15:07:09;1.33;;;1.23;;
7501;SDS011;3792;47.740;7.606;2022-07-10T15:09:36;1.20;;;1.10;;
7501;SDS011;3792;47.740;7.606;2022-07-10T15:12:04;2.47;;;1.30;;
7501;SDS011;3792;47.740;7.606;2022-07-10T15:14:31;1.37;;;1.27;;
7501;SDS011;3792;47.740;7.606;2022-07-10T15:16:58;2.93;;;1.40;;
7501;SDS011;3792;47.740;7.606;2022-07-10T15:19:27;3.27;;;1.40;;
7501;SDS011;3792;47.740;7.606;2022-07-10T15:21:55;1.20;;;1.10;;
7501;SDS011;3792;47.740;7.606;2022-07-10T15:24:24;2.67;;;1.30;;
7501;SDS011;3792;47.740;7.606;2022-07-10T15:26:51;1.83;;;1.27;;
7501;SDS011;3792;47.740;7.606;2022-07-10T15:29:18;2.47;;;1.37;;
7501;SDS011;3792;47.740;7.606;2022-07-10T15:31:49;2.23;;;1.20;;
7501;SDS011;3792;47.740;7.606;2022-07-10T15:34:16;1.50;;;1.37;;
7501;SDS011;3792;47.740;7.606;2022-07-10T15:36:43;1.55;;;1.25;;
7501;SDS011;3792;47.740;7.606;2022-07-10T15:39:11;3.00;;;1.33;;